sensor_id;sensor_type;location;lat;lon;timestamp;P1;durP1;ratioP1;P2;durP2;ratioP2
32505;SDS011;18955;51.224;8.482;2023-04-24T00:00:56;1.17;;;0.30;;
32505;SDS011;18955;51.224;8.482;2023-04-24T00:03:24;0.38;;;0.38;;
32505;SDS011;18955;51.224;8.482;2023-04-24T00:05:50;4.45;;;0.50;;
32505;SDS011;18955;51.224;8.482;2023-04-24T00:08:17;0.30;;;0.30;;
32505;SDS011;18955;51.224;8.482;2023-04-24T00:10:44;1.05;;;0.73;;
32505;SDS011;18955;51.224;8.482;2023-04-24T00:13:10;0.85;;;0.38;;
32505;SDS011;18955;51.224;8.482;2023-04-24T00:18:03;0.38;;;0.38;;
32505;SDS011;18955;51.224;8.482;2023-04-24T00:20:29;0.52;;;0.30;;
32505;SDS011;18955;51.224;8.482;2023-04-24T00:22:57;0.43;;;0.43;;
32505;SDS011;18955;51.224;8.482;2023-04-24T00:25:24;2.67;;;0.35;;
32505;SDS011;18955;51.224;8.482;2023-04-24T00:27:50;0.70;;;0.35;;
32505;SDS011;18955;51.224;8.482;2023-04-24T00:30:16;0.50;;;0.40;;
32505;SDS011;18955;51.224;8.482;2023-04-24T00:32:43;0.73;;;0.40;;
32505;SDS011;18955;51.224;8.482;2023-04-24T00:35:09;0.30;;;0.30;;
32505;SDS011;18955;51.224;8.482;2023-04-24T00:37:36;1.77;;;0.50;;
32505;SDS011;18955;51.224;8.482;2023-04-24T00:40:02;0.50;;;0.50;;
32505;SDS011;18955;51.224;8.482;2023-04-24T00:42:29;0.60;;;0.30;;
32505;SDS011;18955;51.224;8.482;2023-04-24T00:44:56;0.70;;;0.45;;
32505;SDS011;18955;51.224;8.482;2023-04-24T00:47:22;0.68;;;0.40;;
32505;SDS011;18955;51.224;8.482;2023-04-24T00:49:50;1.77;;;0.57;;
32505;SDS011;18955;51.224;8.482;2023-04-24T00:52:18;0.43;;;0.40;;
32505;SDS011;18955;51.224;8.482;2023-04-24T00:54:44;2.63;;;0.40;;
32505;SDS011;18955;51.224;8.482;2023-04-24T00:57:11;2.22;;;0.40;;
32505;SDS011;18955;51.224;8.482;2023-04-24T00:59:40;0.95;;;0.30;;
32505;SDS011;18955;51.224;8.482;2023-04-24T01:02:08;0.57;;;0.40;;
32505;SDS011;18955;51.224;8.482;2023-04-24T01:04:36;1.17;;;0.50;;
32505;SDS011;18955;51.224;8.482;2023-04-24T01:07:04;2.85;;;0.60;;
32505;SDS011;18955;51.224;8.482;2023-04-24T01:09:39;0.30;;;0.30;;
32505;SDS011;18955;51.224;8.482;2023-04-24T01:12:09;0.85;;;0.50;;
32505;SDS011;18955;51.224;8.482;2023-04-24T01:14:37;0.70;;;0.35;;
32505;SDS011;18955;51.224;8.482;2023-04-24T01:17:03;1.45;;;0.50;;
32505;SDS011;18955;51.224;8.482;2023-04-24T01:19:30;1.73;;;0.38;;
32505;SDS011;18955;51.224;8.482;2023-04-24T01:21:57;4.22;;;0.65;;
32505;SDS011;18955;51.224;8.482;2023-04-24T01:24:24;1.65;;;0.50;;
32505;SDS011;18955;51.224;8.482;2023-04-24T01:26:53;0.40;;;0.40;;
32505;SDS011;18955;51.224;8.482;2023-04-24T01:29:20;0.95;;;0.60;;
32505;SDS011;18955;51.224;8.482;2023-04-24T01:31:46;1.70;;;0.50;;
32505;SDS011;18955;51.224;8.482;2023-04-24T01:34:13;1.77;;;0.40;;
32505;SDS011;18955;51.224;8.482;2023-04-24T01:36:40;2.05;;;0.60;;
32505;SDS011;18955;51.224;8.482;2023-04-24T01:39:08;0.98;;;0.68;;
32505;SDS011;18955;51.224;8.482;2023-04-24T01:41:34;0.32;;;0.32;;
32505;SDS011;18955;51.224;8.482;2023-04-24T01:44:00;0.43;;;0.30;;
32505;SDS011;18955;51.224;8.482;2023-04-24T01:46:27;1.13;;;0.60;;
32505;SDS011;18955;51.224;8.482;2023-04-24T01:48:54;2.05;;;0.70;;
32505;SDS011;18955;51.224;8.482;2023-04-24T01:51:21;2.38;;;0.57;;
32505;SDS011;18955;51.224;8.482;2023-04-24T01:53:48;1.00;;;0.47;;
32505;SDS011;18955;51.224;8.482;2023-04-24T01:56:14;0.22;;;0.22;;
32505;SDS011;18955;51.224;8.482;2023-04-24T01:58:41;2.17;;;0.50;;
32505;SDS011;18955;51.224;8.482;2023-04-24T02:01:08;1.65;;;0.60;;
32505;SDS011;18955;51.224;8.482;2023-04-24T02:03:34;2.50;;;0.47;;
32505;SDS011;18955;51.224;8.482;2023-04-24T02:06:00;0.60;;;0.60;;
32505;SDS011;18955;51.224;8.482;2023-04-24T02:08:26;1.40;;;0.40;;
32505;SDS011;18955;51.224;8.482;2023-04-24T02:10:52;3.22;;;0.50;;
32505;SDS011;18955;51.224;8.482;2023-04-24T02:13:19;0.50;;;0.50;;
32505;SDS011;18955;51.224;8.482;2023-04-24T02:15:45;2.85;;;0.40;;
32505;SDS011;18955;51.224;8.482;2023-04-24T02:18:11;2.92;;;0.40;;
32505;SDS011;18955;51.224;8.482;2023-04-24T02:20:38;1.08;;;0.50;;
32505;SDS011;18955;51.224;8.482;2023-04-24T02:23:04;0.50;;;0.45;;
32505;SDS011;18955;51.224;8.482;2023-04-24T02:25:30;0.40;;;0.40;;
32505;SDS011;18955;51.224;8.482;2023-04-24T02:27:56;0.30;;;0.30;;
32505;SDS011;18955;51.224;8.482;2023-04-24T02:30:26;0.40;;;0.32;;
32505;SDS011;18955;51.224;8.482;2023-04-24T02:32:52;0.30;;;0.30;;
32505;SDS011;18955;51.224;8.482;2023-04-24T02:37:45;0.30;;;0.30;;
32505;SDS011;18955;51.224;8.482;2023-04-24T02:40:11;0.32;;;0.32;;
32505;SDS011;18955;51.224;8.482;2023-04-24T02:42:38;4.15;;;0.32;;
32505;SDS011;18955;51.224;8.482;2023-04-24T02:45:04;0.30;;;0.30;;
32505;SDS011;18955;51.224;8.482;2023-04-24T02:47:30;0.30;;;0.30;;
32505;SDS011;18955;51.224;8.482;2023-04-24T02:49:57;0.85;;;0.40;;
32505;SDS011;18955;51.224;8.482;2023-04-24T02:52:23;0.20;;;0.20;;
32505;SDS011;18955;51.224;8.482;2023-04-24T02:54:49;0.22;;;0.22;;
32505;SDS011;18955;51.224;8.482;2023-04-24T02:57:15;0.30;;;0.20;;
32505;SDS011;18955;51.224;8.482;2023-04-24T02:59:42;0.32;;;0.32;;
32505;SDS011;18955;51.224;8.482;2023-04-24T03:02:08;0.50;;;0.43;;
32505;SDS011;18955;51.224;8.482;2023-04-24T03:04:34;0.52;;;0.52;;
32505;SDS011;18955;51.224;8.482;2023-04-24T03:07:01;0.75;;;0.40;;
32505;SDS011;18955;51.224;8.482;2023-04-24T03:09:27;0.30;;;0.30;;
32505;SDS011;18955;51.224;8.482;2023-04-24T03:11:53;1.70;;;0.43;;
32505;SDS011;18955;51.224;8.482;2023-04-24T03:14:19;0.47;;;0.30;;
32505;SDS011;18955;51.224;8.482;2023-04-24T03:16:46;1.33;;;0.50;;
32505;SDS011;18955;51.224;8.482;2023-04-24T03:19:12;0.73;;;0.63;;
32505;SDS011;18955;51.224;8.482;2023-04-24T03:21:49;2.28;;;0.65;;
32505;SDS011;18955;51.224;8.482;2023-04-24T03:24:16;2.90;;;0.70;;
32505;SDS011;18955;51.224;8.482;2023-04-24T03:26:42;0.75;;;0.60;;
32505;SDS011;18955;51.224;8.482;2023-04-24T03:29:34;1.77;;;0.95;;
32505;SDS011;18955;51.224;8.482;2023-04-24T03:34:27;2.63;;;0.50;;
32505;SDS011;18955;51.224;8.482;2023-04-24T03:36:55;0.93;;;0.60;;
32505;SDS011;18955;51.224;8.482;2023-04-24T03:39:24;0.60;;;0.60;;
32505;SDS011;18955;51.224;8.482;2023-04-24T03:41:53;0.68;;;0.68;;
32505;SDS011;18955;51.224;8.482;2023-04-24T03:44:25;1.02;;;0.63;;
32505;SDS011;18955;51.224;8.482;2023-04-24T03:46:52;1.02;;;0.90;;
32505;SDS011;18955;51.224;8.482;2023-04-24T03:49:20;0.70;;;0.70;;
32505;SDS011;18955;51.224;8.482;2023-04-24T03:51:48;0.65;;;0.63;;
32505;SDS011;18955;51.224;8.482;2023-04-24T03:54:19;1.13;;;0.82;;
32505;SDS011;18955;51.224;8.482;2023-04-24T03:56:45;0.70;;;0.70;;
32505;SDS011;18955;51.224;8.482;2023-04-24T04:01:41;1.95;;;0.85;;
32505;SDS011;18955;51.224;8.482;2023-04-24T04:04:13;1.73;;;0.80;;
32505;SDS011;18955;51.224;8.482;2023-04-24T04:06:40;3.67;;;1.30;;
32505;SDS011;18955;51.224;8.482;2023-04-24T04:09:06;2.30;;;1.08;;
32505;SDS011;18955;51.224;8.482;2023-04-24T04:11:35;1.75;;;1.02;;
32505;SDS011;18955;51.224;8.482;2023-04-24T04:14:01;2.60;;;1.20;;
32505;SDS011;18955;51.224;8.482;2023-04-24T04:16:28;1.77;;;1.65;;
32505;SDS011;18955;51.224;8.482;2023-04-24T04:19:00;2.78;;;1.85;;
32505;SDS011;18955;51.224;8.482;2023-04-24T04:21:29;2.25;;;1.77;;
32505;SDS011;18955;51.224;8.482;2023-04-24T04:24:06;2.63;;;2.00;;
32505;SDS011;18955;51.224;8.482;2023-04-24T04:26:37;4.65;;;2.85;;
32505;SDS011;18955;51.224;8.482;2023-04-24T04:29:06;3.58;;;2.55;;
32505;SDS011;18955;51.224;8.482;2023-04-24T04:31:35;3.95;;;2.30;;
32505;SDS011;18955;51.224;8.482;2023-04-24T04:34:06;4.63;;;2.55;;
32505;SDS011;18955;51.224;8.482;2023-04-24T04:36:34;3.05;;;2.50;;
32505;SDS011;18955;51.224;8.482;2023-04-24T04:39:12;3.38;;;2.60;;
32505;SDS011;18955;51.224;8.482;2023-04-24T04:41:51;2.88;;;2.42;;
32505;SDS011;18955;51.224;8.482;2023-04-24T04:44:20;3.40;;;2.60;;
32505;SDS011;18955;51.224;8.482;2023-04-24T04:46:46;5.30;;;2.80;;
32505;SDS011;18955;51.224;8.482;2023-04-24T04:49:22;3.25;;;2.30;;
32505;SDS011;18955;51.224;8.482;2023-04-24T04:51:50;3.05;;;2.42;;
32505;SDS011;18955;51.224;8.482;2023-04-24T04:54:17;3.85;;;2.58;;
32505;SDS011;18955;51.224;8.482;2023-04-24T04:56:45;5.38;;;2.75;;
32505;SDS011;18955;51.224;8.482;2023-04-24T04:59:11;2.72;;;1.90;;
32505;SDS011;18955;51.224;8.482;2023-04-24T05:01:38;6.72;;;2.35;;
32505;SDS011;18955;51.224;8.482;2023-04-24T05:04:07;15.02;;;3.67;;
32505;SDS011;18955;51.224;8.482;2023-04-24T05:06:33;3.30;;;2.33;;
32505;SDS011;18955;51.224;8.482;2023-04-24T05:08:59;3.75;;;3.25;;
32505;SDS011;18955;51.224;8.482;2023-04-24T05:11:33;4.60;;;3.40;;
32505;SDS011;18955;51.224;8.482;2023-04-24T05:14:01;4.72;;;3.00;;
32505;SDS011;18955;51.224;8.482;2023-04-24T05:16:39;7.30;;;4.18;;
32505;SDS011;18955;51.224;8.482;2023-04-24T05:19:06;5.07;;;3.97;;
32505;SDS011;18955;51.224;8.482;2023-04-24T05:21:39;6.95;;;5.10;;
32505;SDS011;18955;51.224;8.482;2023-04-24T05:24:07;7.70;;;4.72;;
32505;SDS011;18955;51.224;8.482;2023-04-24T05:26:56;7.47;;;4.72;;
32505;SDS011;18955;51.224;8.482;2023-04-24T05:29:27;9.07;;;6.07;;
32505;SDS011;18955;51.224;8.482;2023-04-24T05:31:56;8.43;;;6.47;;
32505;SDS011;18955;51.224;8.482;2023-04-24T05:36:53;8.23;;;6.80;;
32505;SDS011;18955;51.224;8.482;2023-04-24T05:39:19;10.00;;;7.00;;
32505;SDS011;18955;51.224;8.482;2023-04-24T05:41:46;9.45;;;7.43;;
32505;SDS011;18955;51.224;8.482;2023-04-24T05:44:12;8.80;;;7.20;;
32505;SDS011;18955;51.224;8.482;2023-04-24T05:46:38;10.82;;;6.95;;
32505;SDS011;18955;51.224;8.482;2023-04-24T05:49:04;9.57;;;6.30;;
32505;SDS011;18955;51.224;8.482;2023-04-24T05:51:33;14.40;;;5.78;;
32505;SDS011;18955;51.224;8.482;2023-04-24T05:56:27;8.88;;;6.15;;
32505;SDS011;18955;51.224;8.482;2023-04-24T05:58:53;11.88;;;6.90;;
32505;SDS011;18955;51.224;8.482;2023-04-24T06:01:19;9.15;;;6.13;;
32505;SDS011;18955;51.224;8.482;2023-04-24T06:03:53;10.07;;;6.93;;
32505;SDS011;18955;51.224;8.482;2023-04-24T06:06:19;7.25;;;4.75;;
32505;SDS011;18955;51.224;8.482;2023-04-24T06:08:46;10.10;;;6.65;;
32505;SDS011;18955;51.224;8.482;2023-04-24T06:11:12;8.02;;;6.25;;
32505;SDS011;18955;51.224;8.482;2023-04-24T06:13:39;7.32;;;5.75;;
32505;SDS011;18955;51.224;8.482;2023-04-24T06:16:34;10.30;;;5.50;;
32505;SDS011;18955;51.224;8.482;2023-04-24T06:19:07;8.25;;;6.40;;
32505;SDS011;18955;51.224;8.482;2023-04-24T06:21:34;10.95;;;5.97;;
32505;SDS011;18955;51.224;8.482;2023-04-24T06:24:01;6.57;;;4.32;;
32505;SDS011;18955;51.224;8.482;2023-04-24T06:26:27;7.80;;;5.28;;
32505;SDS011;18955;51.224;8.482;2023-04-24T06:28:54;4.95;;;3.80;;
32505;SDS011;18955;51.224;8.482;2023-04-24T06:31:20;7.82;;;5.70;;
32505;SDS011;18955;51.224;8.482;2023-04-24T06:33:47;10.13;;;5.75;;
32505;SDS011;18955;51.224;8.482;2023-04-24T06:36:15;7.53;;;5.55;;
32505;SDS011;18955;51.224;8.482;2023-04-24T06:38:42;5.38;;;4.53;;
32505;SDS011;18955;51.224;8.482;2023-04-24T06:41:09;4.55;;;3.63;;
32505;SDS011;18955;51.224;8.482;2023-04-24T06:43:35;6.88;;;4.95;;
32505;SDS011;18955;51.224;8.482;2023-04-24T06:46:01;4.95;;;3.92;;
32505;SDS011;18955;51.224;8.482;2023-04-24T06:48:29;6.72;;;5.97;;
32505;SDS011;18955;51.224;8.482;2023-04-24T06:50:55;8.38;;;5.75;;
32505;SDS011;18955;51.224;8.482;2023-04-24T06:53:21;6.93;;;3.97;;
32505;SDS011;18955;51.224;8.482;2023-04-24T06:55:47;7.78;;;5.78;;
32505;SDS011;18955;51.224;8.482;2023-04-24T06:58:14;8.13;;;6.00;;
32505;SDS011;18955;51.224;8.482;2023-04-24T07:00:41;5.97;;;4.43;;
32505;SDS011;18955;51.224;8.482;2023-04-24T07:03:07;6.75;;;4.35;;
32505;SDS011;18955;51.224;8.482;2023-04-24T07:05:33;6.88;;;4.53;;
32505;SDS011;18955;51.224;8.482;2023-04-24T07:10:27;12.07;;;5.68;;
32505;SDS011;18955;51.224;8.482;2023-04-24T07:15:21;5.35;;;4.28;;
32505;SDS011;18955;51.224;8.482;2023-04-24T07:17:49;9.57;;;5.72;;
32505;SDS011;18955;51.224;8.482;2023-04-24T07:20:15;12.40;;;6.00;;
32505;SDS011;18955;51.224;8.482;2023-04-24T07:22:41;7.63;;;5.55;;
32505;SDS011;18955;51.224;8.482;2023-04-24T07:25:08;12.82;;;6.15;;
32505;SDS011;18955;51.224;8.482;2023-04-24T07:27:35;10.25;;;5.65;;
32505;SDS011;18955;51.224;8.482;2023-04-24T07:30:02;10.70;;;6.00;;
32505;SDS011;18955;51.224;8.482;2023-04-24T07:32:29;8.43;;;5.20;;
32505;SDS011;18955;51.224;8.482;2023-04-24T07:34:56;11.23;;;6.13;;
32505;SDS011;18955;51.224;8.482;2023-04-24T07:37:22;6.82;;;4.85;;
32505;SDS011;18955;51.224;8.482;2023-04-24T07:39:49;15.45;;;6.43;;
32505;SDS011;18955;51.224;8.482;2023-04-24T07:42:15;6.07;;;4.43;;
32505;SDS011;18955;51.224;8.482;2023-04-24T07:44:42;8.00;;;4.68;;
32505;SDS011;18955;51.224;8.482;2023-04-24T07:47:08;7.00;;;3.95;;
32505;SDS011;18955;51.224;8.482;2023-04-24T07:49:34;8.90;;;4.63;;
32505;SDS011;18955;51.224;8.482;2023-04-24T07:52:01;8.88;;;5.05;;
32505;SDS011;18955;51.224;8.482;2023-04-24T07:54:28;6.88;;;4.60;;
32505;SDS011;18955;51.224;8.482;2023-04-24T07:56:54;8.55;;;4.65;;
32505;SDS011;18955;51.224;8.482;2023-04-24T07:59:20;8.90;;;4.25;;
32505;SDS011;18955;51.224;8.482;2023-04-24T08:01:47;4.88;;;3.47;;
32505;SDS011;18955;51.224;8.482;2023-04-24T08:04:13;11.85;;;4.43;;
32505;SDS011;18955;51.224;8.482;2023-04-24T08:06:39;10.43;;;4.65;;
32505;SDS011;18955;51.224;8.482;2023-04-24T08:09:06;7.15;;;4.38;;
32505;SDS011;18955;51.224;8.482;2023-04-24T08:11:32;6.78;;;4.45;;
32505;SDS011;18955;51.224;8.482;2023-04-24T08:13:58;11.13;;;4.35;;
32505;SDS011;18955;51.224;8.482;2023-04-24T08:16:25;7.35;;;3.08;;
32505;SDS011;18955;51.224;8.482;2023-04-24T08:18:51;7.55;;;5.13;;
32505;SDS011;18955;51.224;8.482;2023-04-24T08:21:18;7.97;;;4.72;;
32505;SDS011;18955;51.224;8.482;2023-04-24T08:23:46;11.35;;;4.35;;
32505;SDS011;18955;51.224;8.482;2023-04-24T08:26:12;10.18;;;4.50;;
32505;SDS011;18955;51.224;8.482;2023-04-24T08:28:39;8.35;;;4.78;;
32505;SDS011;18955;51.224;8.482;2023-04-24T08:31:05;4.35;;;3.03;;
32505;SDS011;18955;51.224;8.482;2023-04-24T08:33:31;4.95;;;3.17;;
32505;SDS011;18955;51.224;8.482;2023-04-24T08:36:03;7.25;;;4.10;;
32505;SDS011;18955;51.224;8.482;2023-04-24T08:38:31;6.68;;;4.25;;
32505;SDS011;18955;51.224;8.482;2023-04-24T08:40:58;5.00;;;3.45;;
32505;SDS011;18955;51.224;8.482;2023-04-24T08:43:26;6.32;;;3.50;;
32505;SDS011;18955;51.224;8.482;2023-04-24T08:45:53;8.35;;;3.85;;
32505;SDS011;18955;51.224;8.482;2023-04-24T08:48:22;5.13;;;3.22;;
32505;SDS011;18955;51.224;8.482;2023-04-24T08:50:50;5.35;;;3.35;;
32505;SDS011;18955;51.224;8.482;2023-04-24T08:53:16;5.80;;;3.50;;
32505;SDS011;18955;51.224;8.482;2023-04-24T08:55:45;3.28;;;2.92;;
32505;SDS011;18955;51.224;8.482;2023-04-24T08:58:14;3.55;;;2.53;;
32505;SDS011;18955;51.224;8.482;2023-04-24T09:00:41;4.15;;;2.83;;
32505;SDS011;18955;51.224;8.482;2023-04-24T09:03:15;2.67;;;2.17;;
32505;SDS011;18955;51.224;8.482;2023-04-24T09:05:42;3.17;;;2.13;;
32505;SDS011;18955;51.224;8.482;2023-04-24T09:08:11;3.50;;;1.80;;
32505;SDS011;18955;51.224;8.482;2023-04-24T09:10:39;3.80;;;2.30;;
32505;SDS011;18955;51.224;8.482;2023-04-24T09:15:34;3.83;;;1.27;;
32505;SDS011;18955;51.224;8.482;2023-04-24T09:20:27;5.43;;;1.50;;
32505;SDS011;18955;51.224;8.482;2023-04-24T09:22:54;3.80;;;1.60;;
32505;SDS011;18955;51.224;8.482;2023-04-24T09:25:23;0.70;;;0.70;;
32505;SDS011;18955;51.224;8.482;2023-04-24T09:27:58;2.22;;;1.15;;
32505;SDS011;18955;51.224;8.482;2023-04-24T09:30:29;4.07;;;1.20;;
32505;SDS011;18955;51.224;8.482;2023-04-24T09:33:13;3.63;;;1.30;;
32505;SDS011;18955;51.224;8.482;2023-04-24T09:35:41;2.88;;;1.00;;
32505;SDS011;18955;51.224;8.482;2023-04-24T09:38:08;2.35;;;1.05;;
32505;SDS011;18955;51.224;8.482;2023-04-24T09:40:35;4.10;;;0.98;;
32505;SDS011;18955;51.224;8.482;2023-04-24T09:43:02;5.60;;;0.60;;
32505;SDS011;18955;51.224;8.482;2023-04-24T09:45:29;2.97;;;0.70;;
32505;SDS011;18955;51.224;8.482;2023-04-24T09:48:01;0.88;;;0.68;;
32505;SDS011;18955;51.224;8.482;2023-04-24T09:50:29;2.95;;;0.70;;
32505;SDS011;18955;51.224;8.482;2023-04-24T09:52:58;0.68;;;0.50;;
32505;SDS011;18955;51.224;8.482;2023-04-24T09:55:27;0.68;;;0.50;;
32505;SDS011;18955;51.224;8.482;2023-04-24T09:57:57;0.75;;;0.50;;
32505;SDS011;18955;51.224;8.482;2023-04-24T10:00:29;1.77;;;0.47;;
32505;SDS011;18955;51.224;8.482;2023-04-24T10:03:00;3.38;;;0.50;;
32505;SDS011;18955;51.224;8.482;2023-04-24T10:05:40;0.75;;;0.43;;
32505;SDS011;18955;51.224;8.482;2023-04-24T10:08:10;1.30;;;0.30;;
32505;SDS011;18955;51.224;8.482;2023-04-24T10:10:45;1.25;;;0.30;;
32505;SDS011;18955;51.224;8.482;2023-04-24T10:13:12;0.68;;;0.20;;
32505;SDS011;18955;51.224;8.482;2023-04-24T10:15:41;0.10;;;0.10;;
32505;SDS011;18955;51.224;8.482;2023-04-24T10:20:35;0.30;;;0.22;;
32505;SDS011;18955;51.224;8.482;2023-04-24T10:23:03;0.20;;;0.20;;
32505;SDS011;18955;51.224;8.482;2023-04-24T10:25:31;0.25;;;0.25;;
32505;SDS011;18955;51.224;8.482;2023-04-24T10:27:59;0.20;;;0.20;;
32505;SDS011;18955;51.224;8.482;2023-04-24T10:30:27;0.30;;;0.30;;
32505;SDS011;18955;51.224;8.482;2023-04-24T10:32:55;0.80;;;0.45;;
32505;SDS011;18955;51.224;8.482;2023-04-24T10:35:21;0.98;;;0.32;;
32505;SDS011;18955;51.224;8.482;2023-04-24T10:40:32;0.30;;;0.30;;
32505;SDS011;18955;51.224;8.482;2023-04-24T10:43:04;0.22;;;0.22;;
32505;SDS011;18955;51.224;8.482;2023-04-24T10:45:33;0.85;;;0.40;;
32505;SDS011;18955;51.224;8.482;2023-04-24T10:50:30;3.50;;;0.40;;
32505;SDS011;18955;51.224;8.482;2023-04-24T10:53:12;2.65;;;0.40;;
32505;SDS011;18955;51.224;8.482;2023-04-24T10:55:50;0.30;;;0.30;;
32505;SDS011;18955;51.224;8.482;2023-04-24T10:58:23;0.40;;;0.40;;
32505;SDS011;18955;51.224;8.482;2023-04-24T11:00:57;0.40;;;0.40;;
32505;SDS011;18955;51.224;8.482;2023-04-24T11:03:28;0.30;;;0.30;;
32505;SDS011;18955;51.224;8.482;2023-04-24T11:08:38;0.20;;;0.20;;
32505;SDS011;18955;51.224;8.482;2023-04-24T11:18:52;0.20;;;0.20;;
32505;SDS011;18955;51.224;8.482;2023-04-24T11:21:27;1.50;;;0.40;;
32505;SDS011;18955;51.224;8.482;2023-04-24T11:23:57;0.20;;;0.20;;
32505;SDS011;18955;51.224;8.482;2023-04-24T11:26:24;0.20;;;0.20;;
32505;SDS011;18955;51.224;8.482;2023-04-24T11:28:55;0.20;;;0.20;;
32505;SDS011;18955;51.224;8.482;2023-04-24T11:31:39;0.40;;;0.22;;
32505;SDS011;18955;51.224;8.482;2023-04-24T11:34:14;0.30;;;0.30;;
32505;SDS011;18955;51.224;8.482;2023-04-24T11:36:42;0.13;;;0.13;;
32505;SDS011;18955;51.224;8.482;2023-04-24T11:39:09;2.33;;;0.20;;
32505;SDS011;18955;51.224;8.482;2023-04-24T11:41:37;0.30;;;0.20;;
32505;SDS011;18955;51.224;8.482;2023-04-24T11:44:04;0.22;;;0.22;;
32505;SDS011;18955;51.224;8.482;2023-04-24T11:46:32;0.32;;;0.32;;
32505;SDS011;18955;51.224;8.482;2023-04-24T11:48:58;0.20;;;0.20;;
32505;SDS011;18955;51.224;8.482;2023-04-24T11:53:55;0.10;;;0.10;;
32505;SDS011;18955;51.224;8.482;2023-04-24T11:56:22;1.00;;;0.20;;
32505;SDS011;18955;51.224;8.482;2023-04-24T11:58:53;0.22;;;0.22;;
32505;SDS011;18955;51.224;8.482;2023-04-24T12:01:20;0.28;;;0.28;;
32505;SDS011;18955;51.224;8.482;2023-04-24T12:03:47;0.20;;;0.20;;
32505;SDS011;18955;51.224;8.482;2023-04-24T12:06:14;0.17;;;0.17;;
32505;SDS011;18955;51.224;8.482;2023-04-24T12:08:40;1.98;;;0.20;;
32505;SDS011;18955;51.224;8.482;2023-04-24T12:11:06;0.20;;;0.20;;
32505;SDS011;18955;51.224;8.482;2023-04-24T12:13:33;0.57;;;0.20;;
32505;SDS011;18955;51.224;8.482;2023-04-24T12:18:30;0.30;;;0.30;;
32505;SDS011;18955;51.224;8.482;2023-04-24T12:21:14;0.68;;;0.30;;
32505;SDS011;18955;51.224;8.482;2023-04-24T12:23:42;0.55;;;0.28;;
32505;SDS011;18955;51.224;8.482;2023-04-24T12:26:12;0.40;;;0.40;;
32505;SDS011;18955;51.224;8.482;2023-04-24T12:28:45;0.40;;;0.40;;
32505;SDS011;18955;51.224;8.482;2023-04-24T12:31:13;0.65;;;0.50;;
32505;SDS011;18955;51.224;8.482;2023-04-24T12:33:40;0.70;;;0.60;;
32505;SDS011;18955;51.224;8.482;2023-04-24T12:41:09;1.00;;;0.90;;
32505;SDS011;18955;51.224;8.482;2023-04-24T12:43:37;1.00;;;0.90;;
32505;SDS011;18955;51.224;8.482;2023-04-24T12:46:04;1.83;;;0.95;;
32505;SDS011;18955;51.224;8.482;2023-04-24T12:48:31;1.13;;;0.90;;
32505;SDS011;18955;51.224;8.482;2023-04-24T12:50:58;0.90;;;0.90;;
32505;SDS011;18955;51.224;8.482;2023-04-24T12:53:27;1.15;;;0.95;;
32505;SDS011;18955;51.224;8.482;2023-04-24T12:55:55;1.00;;;1.00;;
32505;SDS011;18955;51.224;8.482;2023-04-24T12:58:22;5.97;;;0.90;;
32505;SDS011;18955;51.224;8.482;2023-04-24T13:00:48;1.38;;;1.27;;
32505;SDS011;18955;51.224;8.482;2023-04-24T13:03:14;1.42;;;1.13;;
32505;SDS011;18955;51.224;8.482;2023-04-24T13:05:41;1.58;;;1.40;;
32505;SDS011;18955;51.224;8.482;2023-04-24T13:08:08;2.10;;;1.55;;
32505;SDS011;18955;51.224;8.482;2023-04-24T13:10:35;4.13;;;2.10;;
32505;SDS011;18955;51.224;8.482;2023-04-24T13:13:01;4.55;;;2.03;;
32505;SDS011;18955;51.224;8.482;2023-04-24T13:15:28;4.15;;;2.17;;
32505;SDS011;18955;51.224;8.482;2023-04-24T13:17:54;4.40;;;2.22;;
32505;SDS011;18955;51.224;8.482;2023-04-24T13:20:20;6.43;;;2.55;;
32505;SDS011;18955;51.224;8.482;2023-04-24T13:22:47;5.68;;;2.50;;
32505;SDS011;18955;51.224;8.482;2023-04-24T13:25:13;10.13;;;2.40;;
32505;SDS011;18955;51.224;8.482;2023-04-24T13:27:42;6.65;;;3.17;;
32505;SDS011;18955;51.224;8.482;2023-04-24T13:30:08;5.82;;;2.65;;
32505;SDS011;18955;51.224;8.482;2023-04-24T13:32:35;6.20;;;2.38;;
32505;SDS011;18955;51.224;8.482;2023-04-24T13:37:28;9.00;;;2.80;;
32505;SDS011;18955;51.224;8.482;2023-04-24T13:39:54;7.80;;;2.60;;
32505;SDS011;18955;51.224;8.482;2023-04-24T13:42:20;10.20;;;3.50;;
32505;SDS011;18955;51.224;8.482;2023-04-24T13:44:47;4.57;;;2.20;;
32505;SDS011;18955;51.224;8.482;2023-04-24T13:47:13;7.57;;;2.50;;
32505;SDS011;18955;51.224;8.482;2023-04-24T13:49:39;9.43;;;3.67;;
32505;SDS011;18955;51.224;8.482;2023-04-24T13:52:05;9.82;;;2.72;;
32505;SDS011;18955;51.224;8.482;2023-04-24T13:54:32;8.63;;;3.35;;
32505;SDS011;18955;51.224;8.482;2023-04-24T13:56:59;6.22;;;3.22;;
32505;SDS011;18955;51.224;8.482;2023-04-24T13:59:26;10.75;;;3.67;;
32505;SDS011;18955;51.224;8.482;2023-04-24T14:01:52;12.52;;;3.25;;
32505;SDS011;18955;51.224;8.482;2023-04-24T14:04:18;9.85;;;3.33;;
32505;SDS011;18955;51.224;8.482;2023-04-24T14:06:44;7.05;;;3.28;;
32505;SDS011;18955;51.224;8.482;2023-04-24T14:09:10;10.68;;;3.63;;
32505;SDS011;18955;51.224;8.482;2023-04-24T14:11:38;10.98;;;3.88;;
32505;SDS011;18955;51.224;8.482;2023-04-24T14:14:04;12.27;;;3.90;;
32505;SDS011;18955;51.224;8.482;2023-04-24T14:18:57;14.93;;;3.67;;
32505;SDS011;18955;51.224;8.482;2023-04-24T14:21:23;12.55;;;3.78;;
32505;SDS011;18955;51.224;8.482;2023-04-24T14:23:50;9.70;;;3.88;;
32505;SDS011;18955;51.224;8.482;2023-04-24T14:26:16;6.93;;;2.42;;
32505;SDS011;18955;51.224;8.482;2023-04-24T14:28:42;9.48;;;3.33;;
32505;SDS011;18955;51.224;8.482;2023-04-24T14:31:09;5.32;;;2.40;;
32505;SDS011;18955;51.224;8.482;2023-04-24T14:33:35;11.02;;;3.42;;
32505;SDS011;18955;51.224;8.482;2023-04-24T14:36:01;9.85;;;3.13;;
32505;SDS011;18955;51.224;8.482;2023-04-24T14:38:28;9.68;;;4.05;;
32505;SDS011;18955;51.224;8.482;2023-04-24T14:40:55;8.45;;;3.55;;
32505;SDS011;18955;51.224;8.482;2023-04-24T14:43:24;7.88;;;3.25;;
32505;SDS011;18955;51.224;8.482;2023-04-24T14:45:51;6.18;;;2.63;;
32505;SDS011;18955;51.224;8.482;2023-04-24T14:48:17;7.97;;;2.55;;
32505;SDS011;18955;51.224;8.482;2023-04-24T14:50:43;9.60;;;3.85;;
32505;SDS011;18955;51.224;8.482;2023-04-24T14:53:10;7.30;;;3.25;;
32505;SDS011;18955;51.224;8.482;2023-04-24T14:55:36;9.00;;;3.28;;
32505;SDS011;18955;51.224;8.482;2023-04-24T14:58:03;8.95;;;3.53;;
32505;SDS011;18955;51.224;8.482;2023-04-24T15:00:29;10.93;;;2.92;;
32505;SDS011;18955;51.224;8.482;2023-04-24T15:02:56;9.85;;;3.70;;
32505;SDS011;18955;51.224;8.482;2023-04-24T15:05:22;11.90;;;2.70;;
32505;SDS011;18955;51.224;8.482;2023-04-24T15:07:50;8.52;;;3.65;;
32505;SDS011;18955;51.224;8.482;2023-04-24T15:10:16;17.33;;;5.32;;
32505;SDS011;18955;51.224;8.482;2023-04-24T15:15:09;8.30;;;3.63;;
32505;SDS011;18955;51.224;8.482;2023-04-24T15:17:35;7.57;;;3.30;;
32505;SDS011;18955;51.224;8.482;2023-04-24T15:20:02;6.22;;;3.30;;
32505;SDS011;18955;51.224;8.482;2023-04-24T15:22:29;8.88;;;3.70;;
32505;SDS011;18955;51.224;8.482;2023-04-24T15:24:55;9.13;;;3.80;;
32505;SDS011;18955;51.224;8.482;2023-04-24T15:27:21;13.23;;;4.57;;
32505;SDS011;18955;51.224;8.482;2023-04-24T15:29:47;5.35;;;2.72;;
32505;SDS011;18955;51.224;8.482;2023-04-24T15:32:14;11.95;;;3.35;;
32505;SDS011;18955;51.224;8.482;2023-04-24T15:34:40;14.52;;;3.60;;
32505;SDS011;18955;51.224;8.482;2023-04-24T15:37:06;7.25;;;3.28;;
32505;SDS011;18955;51.224;8.482;2023-04-24T15:39:32;6.47;;;3.42;;
32505;SDS011;18955;51.224;8.482;2023-04-24T15:41:59;5.20;;;2.55;;
32505;SDS011;18955;51.224;8.482;2023-04-24T15:44:25;8.25;;;3.53;;
32505;SDS011;18955;51.224;8.482;2023-04-24T15:46:52;9.88;;;3.28;;
32505;SDS011;18955;51.224;8.482;2023-04-24T15:49:18;8.57;;;3.42;;